^^
Saratoga-Weather Station Historical Data
Daily Summary for June 28, 2020 Units:  Both    English   Metric
Daily Weekly Monthly Yearly Custom
  High: Low: Average:
Temperature: 45.7 °F /  7.6 °C 44.1 °F /  6.7 °C 44.8 °F /  7.1 °C
Dew Point: 44.6 °F /  7 °C 43 °F /  6.1 °C 43.7 °F /  6.5 °C
Humidity: 96% 95% 96%
Wind Speed: 0.9mph /  1.4km/h - 0mph /  0km/h
Wind Gust: 3mph /  4.8km/h - -
Wind- - SW
Pressure: 29.8 in /  1008.5 hPa 29.8 in /  1007.8 hPa -
Precipitation: 0 in /  0.0 mm    
Historical Graphs
 
 
Tabular Data for June 28, 2020
Time Temperature Dew Point Pressure Wind Wind Speed Wind Gust Humidity Rainfall Rate (Hourly) solar
00:04 45 °F /  7.2 °C 43.7 °F /  6.5 °C 29.8in /  1007.8hPa Calm     95% 0in /  0.0mm 0 W/m2
00:09 45 °F /  7.2 °C 43.7 °F /  6.5 °C 29.8in /  1007.8hPa Calm     95% 0in /  0.0mm 0 W/m2
00:14 44.8 °F /  7.1 °C 43.5 °F /  6.4 °C 29.8in /  1007.8hPa Calm     95% 0in /  0.0mm 0 W/m2
00:19 45 °F /  7.2 °C 43.9 °F /  6.6 °C 29.8in /  1007.8hPa Calm     96% 0in /  0.0mm 0 W/m2
00:24 45 °F /  7.2 °C 43.9 °F /  6.6 °C 29.8in /  1007.8hPa Calm     96% 0in /  0.0mm 0 W/m2
00:29 45.1 °F /  7.3 °C 44.1 °F /  6.7 °C 29.8in /  1007.8hPa Calm     96% 0in /  0.0mm 0 W/m2
00:34 45.3 °F /  7.4 °C 44.2 °F /  6.8 °C 29.8in /  1007.8hPa Calm     96% 0in /  0.0mm 0 W/m2
00:39 45.5 °F /  7.5 °C 44.4 °F /  6.9 °C 29.8in /  1008.1hPa Calm     96% 0in /  0.0mm 0 W/m2
00:44 45.7 °F /  7.6 °C 44.6 °F /  7 °C 29.8in /  1008.1hPa Calm     96% 0in /  0.0mm 0 W/m2
00:49 45.5 °F /  7.5 °C 44.4 °F /  6.9 °C 29.8in /  1008.1hPa Calm     96% 0in /  0.0mm 0 W/m2
00:54 45.5 °F /  7.5 °C 44.4 °F /  6.9 °C 29.8in /  1008.1hPa Calm     96% 0in /  0.0mm 0 W/m2
00:59 45.3 °F /  7.4 °C 44.2 °F /  6.8 °C 29.8in /  1008.1hPa Calm   3mph /  4.8km/h 96% 0in /  0.0mm 0 W/m2
01:04 45.3 °F /  7.4 °C 44.2 °F /  6.8 °C 29.8in /  1008.1hPa SW 0.9mph /  1.4km/h 2mph /  3.2km/h 96% 0in /  0.0mm 0 W/m2
01:09 45.3 °F /  7.4 °C 44.2 °F /  6.8 °C 29.8in /  1008.1hPa Calm     96% 0in /  0.0mm 0 W/m2
01:14 45.3 °F /  7.4 °C 44.2 °F /  6.8 °C 29.8in /  1008.1hPa Calm     96% 0in /  0.0mm 0 W/m2
01:19 45.3 °F /  7.4 °C 44.2 °F /  6.8 °C 29.8in /  1008.5hPa Calm     96% 0in /  0.0mm 0 W/m2
01:24 45.3 °F /  7.4 °C 44.2 °F /  6.8 °C 29.8in /  1008.5hPa Calm     96% 0in /  0.0mm 0 W/m2
01:29 45.3 °F /  7.4 °C 44.2 °F /  6.8 °C 29.8in /  1008.5hPa Calm     96% 0in /  0.0mm 0 W/m2
01:34 45.3 °F /  7.4 °C 44.2 °F /  6.8 °C 29.8in /  1008.5hPa Calm   1mph /  1.6km/h 96% 0in /  0.0mm 0 W/m2
01:39 45.1 °F /  7.3 °C 44.1 °F /  6.7 °C 29.8in /  1008.5hPa Calm     96% 0in /  0.0mm 0 W/m2
01:44 45.1 °F /  7.3 °C 44.1 °F /  6.7 °C 29.8in /  1008.5hPa Calm     96% 0in /  0.0mm 0 W/m2
01:49 45.1 °F /  7.3 °C 44.1 °F /  6.7 °C 29.8in /  1008.1hPa Calm     96% 0in /  0.0mm 0 W/m2
01:54 45 °F /  7.2 °C 43.9 °F /  6.6 °C 29.8in /  1008.1hPa Calm     96% 0in /  0.0mm 0 W/m2
01:59 45 °F /  7.2 °C 43.9 °F /  6.6 °C 29.8in /  1008.1hPa Calm     96% 0in /  0.0mm 0 W/m2
02:04 44.8 °F /  7.1 °C 43.7 °F /  6.5 °C 29.8in /  1008.1hPa Calm     96% 0in /  0.0mm 0 W/m2
02:10 44.8 °F /  7.1 °C 43.7 °F /  6.5 °C 29.8in /  1008.1hPa Calm     96% 0in /  0.0mm 0 W/m2
02:15 44.6 °F /  7 °C 43.5 °F /  6.4 °C 29.8in /  1008.1hPa Calm     96% 0in /  0.0mm 0 W/m2
02:20 44.4 °F /  6.9 °C 43.3 °F /  6.3 °C 29.8in /  1008.1hPa Calm     96% 0in /  0.0mm 0 W/m2
02:25 44.4 °F /  6.9 °C 43.3 °F /  6.3 °C 29.8in /  1008.1hPa Calm     96% 0in /  0.0mm 0 W/m2
02:30 44.2 °F /  6.8 °C 43.2 °F /  6.2 °C 29.8in /  1008.1hPa Calm     96% 0in /  0.0mm 0 W/m2
02:35 44.1 °F /  6.7 °C 43 °F /  6.1 °C 29.8in /  1008.1hPa Calm     96% 0in /  0.0mm 0 W/m2
02:40 44.1 °F /  6.7 °C 43 °F /  6.1 °C 29.8in /  1008.1hPa Calm     96% 0in /  0.0mm 0 W/m2
02:45 44.1 °F /  6.7 °C 43 °F /  6.1 °C 29.8in /  1008.1hPa Calm     96% 0in /  0.0mm 0 W/m2
02:50 44.1 °F /  6.7 °C 43 °F /  6.1 °C 29.8in /  1008.1hPa Calm     96% 0in /  0.0mm 0 W/m2
02:55 44.1 °F /  6.7 °C 43 °F /  6.1 °C 29.8in /  1008.1hPa Calm     96% 0in /  0.0mm 0 W/m2
03:00 44.2 °F /  6.8 °C 43.2 °F /  6.2 °C 29.8in /  1008.1hPa Calm     96% 0in /  0.0mm 0 W/m2
03:05 44.2 °F /  6.8 °C 43.2 °F /  6.2 °C 29.8in /  1008.5hPa Calm     96% 0in /  0.0mm 0 W/m2
03:10 44.2 °F /  6.8 °C 43.2 °F /  6.2 °C 29.8in /  1008.1hPa Calm     96% 0in /  0.0mm 0 W/m2
03:15 44.4 °F /  6.9 °C 43.3 °F /  6.3 °C 29.8in /  1008.1hPa Calm     96% 0in /  0.0mm 0 W/m2
03:20 44.4 °F /  6.9 °C 43.3 °F /  6.3 °C 29.8in /  1008.1hPa Calm     96% 0in /  0.0mm 0 W/m2
03:25 44.6 °F /  7 °C 43.5 °F /  6.4 °C 29.8in /  1008.1hPa Calm     96% 0in /  0.0mm 0 W/m2
03:30 44.6 °F /  7 °C 43.5 °F /  6.4 °C 29.8in /  1008.1hPa Calm     96% 0in /  0.0mm 0 W/m2
03:35 44.8 °F /  7.1 °C 43.7 °F /  6.5 °C 29.8in /  1008.1hPa Calm     96% 0in /  0.0mm 0 W/m2
03:40 44.8 °F /  7.1 °C 43.7 °F /  6.5 °C 29.8in /  1008.1hPa Calm     96% 0in /  0.0mm 0 W/m2
03:45 44.8 °F /  7.1 °C 43.7 °F /  6.5 °C 29.8in /  1008.1hPa Calm     96% 0in /  0.0mm 0 W/m2
03:50 44.8 °F /  7.1 °C 43.7 °F /  6.5 °C 29.8in /  1008.1hPa Calm     96% 0in /  0.0mm 0 W/m2
03:55 44.6 °F /  7 °C 43.5 °F /  6.4 °C 29.8in /  1008.1hPa Calm     96% 0in /  0.0mm 0 W/m2
04:00 44.6 °F /  7 °C 43.5 °F /  6.4 °C 29.8in /  1008.1hPa Calm     96% 0in /  0.0mm 0 W/m2
04:05 44.6 °F /  7 °C 43.5 °F /  6.4 °C 29.8in /  1008.1hPa Calm     96% 0in /  0.0mm 0 W/m2
04:10 44.6 °F /  7 °C 43.5 °F /  6.4 °C 29.8in /  1008.1hPa Calm     96% 0in /  0.0mm 0 W/m2
04:15 44.6 °F /  7 °C 43.5 °F /  6.4 °C 29.8in /  1008.1hPa Calm     96% 0in /  0.0mm 0 W/m2
Juneau County Weather
Compliments of Weather Underground - 2 mb